Time;durP1;ratioP1;P1;durP2;ratioP2;P2;SDS_P1;SDS_P2;PMS_P1;PMS_P2;Temp;Humidity;BMP_temperature;BMP_pressure;BME280_temperature;BME280_humidity;BME280_pressure;Samples;Min_cycle;Max_cycle;Signal;HPM_P1;HPM_P2
2021/06/25 00:01:18;;;;;;;3.17;2.83;;;18.40;83.30;;;18.42;66.51;97843.22;5027402;28;20059;-42
2021/06/25 00:03:46;;;;;;;4.50;3.38;;;18.40;83.20;;;18.45;66.54;97845.47;5027776;28;20056;-43
2021/06/25 00:06:14;;;;;;;3.63;3.25;;;18.30;83.40;;;18.47;66.46;97845.28;5026404;28;20067;-41
2021/06/25 00:08:42;;;;;;;3.17;2.88;;;18.30;83.50;;;18.48;66.47;97841.56;5027391;28;20092;-43
2021/06/25 00:11:11;;;;;;;3.88;2.85;;;18.30;83.70;;;18.46;66.56;97836.38;5029500;28;20057;-42
2021/06/25 00:13:39;;;;;;;5.03;3.30;;;18.30;83.60;;;18.41;66.88;97848.81;5027832;28;20061;-43
2021/06/25 00:16:06;;;;;;;4.28;2.80;;;18.30;84.00;;;18.43;66.79;97849.44;5028212;28;20052;-42
2021/06/25 00:18:34;;;;;;;3.20;2.88;;;18.30;84.30;;;18.46;66.65;97849.03;5026899;28;20041;-42
2021/06/25 00:21:03;;;;;;;3.45;2.58;;;18.30;84.40;;;18.40;66.99;97848.00;5026829;28;20057;-43
2021/06/25 00:23:31;;;;;;;3.47;2.80;;;18.20;84.80;;;18.34;67.28;97846.13;5028737;28;20045;-42
2021/06/25 00:26:00;;;;;;;3.97;3.22;;;18.20;85.00;;;18.36;67.29;97845.88;5010572;28;20049;-42
2021/06/25 00:28:28;;;;;;;4.13;3.22;;;18.20;85.10;;;18.36;67.32;97846.75;5027190;28;20053;-42
2021/06/25 00:30:56;;;;;;;3.70;3.00;;;18.20;85.30;;;18.37;67.28;97844.88;5026425;28;20107;-42
2021/06/25 00:33:23;;;;;;;3.50;3.20;;;18.20;85.20;;;18.36;67.39;97845.88;5027734;28;20060;-42
2021/06/25 00:35:51;;;;;;;3.38;2.92;;;18.20;85.20;;;18.35;67.38;97846.94;5027663;28;20048;-42
2021/06/25 00:38:20;;;;;;;4.00;2.88;;;18.10;85.70;;;18.32;67.44;97842.81;5026386;28;20053;-42
2021/06/25 00:40:47;;;;;;;3.55;3.08;;;18.10;86.00;;;18.31;67.43;97841.13;5026752;28;20133;-43
2021/06/25 00:43:15;;;;;;;4.15;3.70;;;18.10;86.00;;;18.24;67.59;97837.59;5026597;28;20067;-43
2021/06/25 00:45:43;;;;;;;5.50;3.65;;;18.00;86.10;;;18.17;67.82;97842.16;5027673;28;20049;-47
2021/06/25 00:48:11;;;;;;;3.72;3.35;;;17.90;86.60;;;18.14;67.91;97842.56;5026891;28;20049;-43
2021/06/25 00:50:39;;;;;;;4.22;3.83;;;17.80;86.70;;;18.06;67.61;97841.72;5026259;28;20352;-43
2021/06/25 00:53:07;;;;;;;4.25;3.53;;;17.80;86.70;;;18.02;68.05;97835.06;5025035;28;20051;-43
2021/06/25 00:55:42;;;;;;;5.05;4.18;;;17.80;86.70;;;17.98;68.19;97835.69;5024772;28;20049;-43
2021/06/25 00:58:14;;;;;;;5.47;3.88;;;17.70;87.00;;;18.00;68.03;97833.63;5025277;28;20063;-42
2021/06/25 01:00:43;;;;;;;7.43;4.90;;;17.80;87.00;;;17.98;68.29;97839.22;5026776;28;20057;-42
2021/06/25 01:03:12;;;;;;;4.72;4.07;;;17.80;87.00;;;17.95;68.20;97841.47;5026436;28;20220;-42
2021/06/25 01:05:42;;;;;;;5.93;4.55;;;17.70;87.20;;;17.90;68.47;97840.22;5026889;28;20059;-42
2021/06/25 01:08:11;;;;;;;5.80;4.18;;;17.70;87.50;;;17.93;68.31;97843.53;5007262;28;20067;-42
2021/06/25 01:10:41;;;;;;;4.38;3.35;;;17.70;87.30;;;17.92;68.59;97833.81;5027151;28;20370;-42
2021/06/25 01:13:10;;;;;;;4.88;4.13;;;17.70;87.50;;;17.94;68.52;97840.66;5008868;28;20046;-42
2021/06/25 01:15:38;;;;;;;7.43;4.65;;;17.70;87.40;;;17.68;69.26;97847.59;5026504;28;20051;-43
2021/06/25 01:18:06;;;;;;;5.07;4.22;;;17.50;88.00;;;17.67;68.82;97848.63;5026152;28;20055;-43
2021/06/25 01:20:35;;;;;;;4.28;3.55;;;17.40;88.40;;;17.67;68.81;97851.31;5026966;28;20063;-42
2021/06/25 01:23:05;;;;;;;4.05;3.65;;;17.40;88.40;;;17.59;69.03;97848.78;5027648;28;20053;-44
2021/06/25 01:25:36;;;;;;;4.63;4.03;;;17.30;88.80;;;17.62;69.02;97842.16;5028184;28;20056;-42
2021/06/25 01:28:11;;;;;;;6.65;4.60;;;17.30;88.80;;;17.57;69.67;97844.66;5026187;28;20533;-43
2021/06/25 01:30:45;;;;;;;6.15;5.10;;;17.40;88.60;;;17.53;69.63;97846.91;5024825;28;20059;-43
2021/06/25 01:33:16;;;;;;;;;;;17.40;88.90;;;17.57;68.79;97834.72;5008130;28;20076;-43
2021/06/25 01:35:44;;;;;;;6.18;5.35;;;17.40;89.10;;;17.68;69.05;97838.66;5026163;28;20119;-42
2021/06/25 01:38:13;;;;;;;5.97;4.90;;;17.50;88.50;;;17.69;69.10;97838.47;5025345;28;20726;-42
2021/06/25 01:40:43;;;;;;;6.10;5.22;;;17.60;88.00;;;17.72;68.93;97834.56;5009502;28;20381;-43
2021/06/25 01:43:12;;;;;;;7.03;5.00;;;17.60;88.10;;;17.69;69.13;97837.66;5028334;28;20050;-42
2021/06/25 01:45:42;;;;;;;6.65;5.00;;;17.50;87.90;;;17.71;69.11;97835.59;5025921;28;20355;-42
2021/06/25 01:48:11;;;;;;;5.82;4.72;;;17.50;88.00;;;17.63;69.32;97833.06;5026040;28;20049;-42
2021/06/25 01:50:44;;;;;;;6.57;5.10;;;17.50;88.00;;;17.66;69.00;97832.66;5025955;28;20059;-43
2021/06/25 01:53:16;;;;;;;5.73;5.07;;;17.40;88.30;;;17.63;69.19;97823.13;5024882;28;20037;-42
2021/06/25 01:55:46;;;;;;;6.88;4.70;;;17.40;88.20;;;17.63;69.16;97833.06;5028365;28;20057;-42
2021/06/25 01:58:25;;;;;;;8.60;5.80;;;17.40;88.20;;;17.58;69.29;97825.59;5026104;28;20055;-42
2021/06/25 02:01:15;;;;;;;5.30;4.80;;;17.40;88.40;;;17.55;69.27;97827.88;5026222;28;20052;-43
2021/06/25 02:03:48;;;;;;;5.32;4.40;;;17.30;88.60;;;17.60;69.32;97828.94;5026346;28;20057;-42
2021/06/25 02:06:16;;;;;;;5.35;4.68;;;17.40;88.80;;;17.63;69.22;97828.50;5024352;28;20054;-42
2021/06/25 02:08:44;;;;;;;5.75;5.15;;;17.40;88.50;;;17.64;69.13;97827.50;5024368;28;20056;-43
2021/06/25 02:11:13;;;;;;;6.45;5.43;;;17.40;88.40;;;17.62;69.39;97823.31;5025892;28;20057;-42
2021/06/25 02:13:41;;;;;;;5.97;5.25;;;17.50;88.40;;;17.68;69.47;97826.06;5025112;28;20111;-43
2021/06/25 02:16:09;;;;;;;6.85;5.35;;;17.60;88.30;;;17.70;69.18;97812.41;5027256;28;20339;-42
2021/06/25 02:18:37;;;;;;;6.97;4.57;;;17.60;88.00;;;17.74;69.08;97818.19;5025527;28;20243;-43
2021/06/25 02:21:06;;;;;;;5.88;4.38;;;17.70;87.60;;;17.70;69.30;97818.59;5024491;28;20056;-42
2021/06/25 02:23:34;;;;;;;5.40;4.53;;;17.60;87.50;;;17.75;69.04;97814.47;5026982;28;20049;-43
2021/06/25 02:26:02;;;;;;;4.90;4.40;;;17.60;87.70;;;17.62;69.19;97816.09;5008142;28;20053;-42
2021/06/25 02:28:30;;;;;;;5.55;4.90;;;17.50;88.00;;;17.67;69.22;97818.19;5026081;28;20057;-43
2021/06/25 02:30:59;;;;;;;6.53;4.93;;;17.50;87.90;;;17.70;69.18;97818.59;5024712;28;20069;-42
2021/06/25 02:33:28;;;;;;;5.75;4.47;;;17.60;87.70;;;17.73;68.99;97811.97;5025905;28;20483;-42
2021/06/25 02:35:56;;;;;;;9.50;4.78;;;17.60;87.50;;;17.75;68.97;97819.84;5024794;28;20048;-42
2021/06/25 02:38:24;;;;;;;5.60;4.20;;;17.60;87.30;;;17.74;68.93;97819.03;5025993;28;20414;-42
2021/06/25 02:40:51;;;;;;;4.72;4.20;;;17.60;87.40;;;17.71;68.79;97827.50;5022300;28;20049;-43
2021/06/25 02:43:19;;;;;;;4.93;4.22;;;17.50;87.50;;;17.71;68.91;97822.13;5025378;28;20285;-42
2021/06/25 02:45:47;;;;;;;6.15;4.45;;;17.50;87.50;;;17.73;68.76;97814.66;5007771;28;20079;-43
2021/06/25 02:48:15;;;;;;;4.70;4.18;;;17.60;87.20;;;17.72;68.78;97815.72;5025299;28;20057;-44
2021/06/25 02:50:43;;;;;;;5.32;4.53;;;17.60;86.60;;;17.73;68.59;97820.06;5024352;28;20083;-45
2021/06/25 02:53:11;;;;;;;4.47;4.07;;;17.50;87.20;;;17.63;68.74;97814.22;5024902;28;20041;-43
2021/06/25 02:55:50;;;;;;;6.30;4.75;;;17.40;87.40;;;17.64;68.71;97808.66;5022078;28;20046;-43
2021/06/25 02:58:23;;;;;;;4.85;3.95;;;17.40;87.30;;;17.58;68.75;97814.81;5023829;28;20049;-43
2021/06/25 03:00:53;;;;;;;5.20;3.83;;;17.30;87.30;;;17.50;68.82;97818.50;5024163;28;20046;-43
2021/06/25 03:03:22;;;;;;;4.10;3.70;;;17.30;87.10;;;17.51;68.94;97819.38;5024084;28;20057;-43
2021/06/25 03:05:51;;;;;;;5.05;4.13;;;17.20;87.80;;;17.52;68.70;97810.25;5024866;28;20057;-43
2021/06/25 03:08:20;;;;;;;4.32;3.72;;;17.30;87.90;;;17.47;69.05;97818.13;5024314;28;20060;-42
2021/06/25 03:10:50;;;;;;;5.88;4.32;;;17.20;87.90;;;17.43;69.22;97806.91;5023997;28;20053;-42
2021/06/25 03:13:20;;;;;;;5.20;4.10;;;17.20;88.00;;;17.49;68.95;97814.19;5024962;28;20057;-43
2021/06/25 03:15:49;;;;;;;5.78;4.30;;;17.20;88.20;;;17.55;69.05;97811.72;5025225;28;20084;-42
2021/06/25 03:18:18;;;;;;;5.43;4.07;;;17.40;88.20;;;17.60;68.97;97820.00;5027687;28;20266;-43
2021/06/25 03:20:46;;;;;;;5.25;4.07;;;17.50;88.00;;;17.64;69.02;97810.50;5028787;28;20051;-43
2021/06/25 03:23:14;;;;;;;4.90;4.18;;;17.50;87.60;;;17.65;69.02;97810.28;5028091;28;20057;-42
2021/06/25 03:25:42;;;;;;;5.85;4.78;;;17.50;87.40;;;17.68;68.80;97814.44;5028949;28;20057;-43
2021/06/25 03:28:10;;;;;;;4.75;3.90;;;17.50;87.30;;;17.70;68.98;97812.41;5028858;28;20055;-42
2021/06/25 03:30:39;;;;;;;5.88;4.45;;;17.60;87.40;;;17.71;68.79;97808.66;5028974;28;20053;-42
2021/06/25 03:33:08;;;;;;;4.63;3.90;;;17.60;87.20;;;17.73;68.77;97811.16;5027862;28;20057;-42
2021/06/25 03:35:36;;;;;;;4.70;3.92;;;17.60;87.10;;;17.73;68.86;97790.44;5028907;28;20226;-43
2021/06/25 03:38:05;;;;;;;5.57;3.88;;;17.60;87.20;;;17.70;68.87;97801.63;5011378;28;20554;-43
2021/06/25 03:40:35;;;;;;;4.45;3.47;;;17.50;87.40;;;17.71;68.96;97797.88;5028342;28;20059;-43
2021/06/25 03:43:05;;;;;;;4.18;3.10;;;17.50;87.60;;;17.69;68.65;97800.78;5027497;28;20053;-44
2021/06/25 03:45:33;;;;;;;4.60;3.53;;;17.50;87.70;;;17.71;68.69;97804.09;5027268;28;20055;-42
2021/06/25 03:48:03;;;;;;;4.78;3.17;;;17.50;87.70;;;17.71;68.84;97808.66;5026498;28;20053;-44
2021/06/25 03:50:31;;;;;;;4.93;3.45;;;17.50;87.50;;;17.70;68.70;97804.31;5026649;28;20053;-42
2021/06/25 03:53:00;;;;;;;5.65;3.15;;;17.50;87.70;;;17.70;68.73;97810.53;5026211;28;20053;-42
2021/06/25 03:55:28;;;;;;;5.35;2.80;;;17.50;87.60;;;17.70;68.81;97807.84;5027326;28;20282;-43
2021/06/25 03:57:56;;;;;;;3.90;3.17;;;17.50;87.70;;;17.72;68.88;97804.94;5026408;28;20059;-42
2021/06/25 04:00:24;;;;;;;3.40;2.83;;;17.50;87.30;;;17.72;68.91;97807.63;5010344;28;20063;-43
2021/06/25 04:02:52;;;;;;;6.90;2.35;;;17.60;87.50;;;17.73;68.84;97808.47;5026517;28;20060;-42
2021/06/25 04:05:20;;;;;;;3.38;2.90;;;17.60;87.40;;;17.74;68.74;97800.19;5028095;28;20053;-42
2021/06/25 04:07:48;;;;;;;3.58;2.22;;;17.60;87.30;;;17.74;68.77;97812.78;5026596;28;20049;-43
2021/06/25 04:10:16;;;;;;;3.63;2.70;;;17.60;87.30;;;17.71;68.70;97808.66;5026660;28;20045;-42
2021/06/25 04:12:44;;;;;;;3.00;2.70;;;17.60;87.20;;;17.70;68.81;97807.00;5027080;28;20061;-42
2021/06/25 04:15:12;;;;;;;7.40;3.33;;;17.60;87.20;;;17.66;68.91;97803.91;5029018;28;20054;-42
2021/06/25 04:17:40;;;;;;;2.80;2.33;;;17.50;87.50;;;17.60;69.10;97803.84;5009206;28;20061;-42
2021/06/25 04:20:09;;;;;;;3.47;2.90;;;17.40;87.20;;;17.57;69.09;97810.47;5027787;28;20053;-42
2021/06/25 04:22:37;;;;;;;3.55;2.53;;;17.30;87.80;;;17.56;69.07;97819.56;5009413;28;20071;-42
2021/06/25 04:25:05;;;;;;;4.80;3.13;;;17.40;88.10;;;17.40;69.66;97817.25;5027705;28;20057;-42
2021/06/25 04:27:33;;;;;;;4.57;3.08;;;17.10;89.20;;;17.29;70.12;97818.63;5027822;28;20547;-42
2021/06/25 04:30:04;;;;;;;5.10;3.28;;;17.00;90.30;;;17.32;70.19;97819.06;5027526;28;20053;-44
2021/06/25 04:32:33;;;;;;;3.88;3.30;;;17.10;90.60;;;17.32;70.46;97823.63;5032024;23;20056;-42
2021/06/25 04:35:02;;;;;;;7.32;3.47;;;17.10;91.30;;;17.32;70.20;97824.44;5027279;28;20045;-42
2021/06/25 04:37:30;;;;;;;4.97;3.78;;;17.00;91.00;;;17.31;70.35;97821.94;5026553;28;20057;-42
2021/06/25 04:39:58;;;;;;;4.68;3.53;;;17.00;91.40;;;17.29;70.67;97827.56;5026120;28;20059;-41
2021/06/25 04:42:26;;;;;;;5.13;4.05;;;17.00;91.80;;;17.28;70.65;97828.56;5028055;28;20061;-42
2021/06/25 04:44:54;;;;;;;6.07;3.67;;;16.90;92.10;;;17.25;70.50;97820.91;5025882;28;20057;-43
2021/06/25 04:47:22;;;;;;;4.28;3.28;;;16.90;92.20;;;17.21;70.82;97822.31;5026865;28;20458;-42
2021/06/25 04:49:49;;;;;;;4.53;3.00;;;16.80;92.30;;;17.15;70.84;97827.69;5026084;28;20056;-42
2021/06/25 04:52:17;;;;;;;4.03;3.17;;;16.70;92.90;;;17.11;70.93;97825.38;5026391;28;20049;-42
2021/06/25 04:54:45;;;;;;;4.75;3.13;;;16.70;93.30;;;17.09;71.19;97818.53;5027559;28;20076;-42
2021/06/25 04:57:13;;;;;;;5.53;3.50;;;16.60;93.40;;;17.04;71.10;97821.00;5027316;28;20054;-42
2021/06/25 04:59:41;;;;;;;3.83;3.20;;;16.60;93.40;;;17.05;71.25;97825.34;5025579;28;20258;-41
2021/06/25 05:02:09;;;;;;;3.03;2.40;;;16.60;93.60;;;17.09;71.38;97824.75;5026126;28;20088;-41
2021/06/25 05:04:37;;;;;;;3.88;3.10;;;16.70;93.70;;;17.14;71.20;97829.56;5025704;28;20055;-41
2021/06/25 05:07:05;;;;;;;5.75;3.90;;;16.80;93.30;;;17.16;71.46;97824.81;5025116;28;20067;-40
2021/06/25 05:09:33;;;;;;;6.20;3.08;;;16.90;93.40;;;17.20;71.51;97827.94;5027133;28;20148;-42
2021/06/25 05:12:01;;;;;;;3.60;2.72;;;16.90;93.20;;;17.24;71.41;97823.81;5027099;28;20049;-42
2021/06/25 05:14:29;;;;;;;3.05;2.47;;;17.00;93.10;;;17.29;71.56;97821.31;5026850;28;20056;-42
2021/06/25 05:16:57;;;;;;;3.17;2.58;;;17.10;93.20;;;17.28;71.86;97825.88;5027517;28;20068;-43
2021/06/25 05:19:25;;;;;;;3.20;2.58;;;17.10;92.90;;;17.31;71.64;97821.94;5027496;28;20057;-40
2021/06/25 05:21:52;;;;;;;2.92;2.50;;;17.10;93.00;;;17.34;71.80;97829.63;5026382;28;20057;-40
2021/06/25 05:24:20;;;;;;;3.22;2.60;;;17.20;93.00;;;17.33;71.82;97825.28;5027422;28;20093;-40
2021/06/25 05:26:48;;;;;;;2.97;2.42;;;17.20;92.50;;;17.38;71.87;97824.69;5027363;28;20067;-40
2021/06/25 05:29:16;;;;;;;3.33;2.70;;;17.30;93.00;;;17.40;71.97;97825.31;5026737;28;20061;-41
2021/06/25 05:31:44;;;;;;;3.92;2.40;;;17.30;92.90;;;17.36;72.09;97824.88;5027300;28;20053;-41
2021/06/25 05:34:12;;;;;;;3.58;2.58;;;17.20;93.00;;;17.30;72.11;97823.81;5025905;28;20060;-41
2021/06/25 05:36:40;;;;;;;3.58;2.90;;;17.10;93.30;;;17.26;72.08;97821.75;5026746;28;20059;-41
2021/06/25 05:39:08;;;;;;;4.07;3.05;;;17.00;93.50;;;17.25;72.03;97823.63;5026155;28;20386;-41
2021/06/25 05:41:36;;;;;;;3.35;2.80;;;17.00;93.80;;;17.22;72.25;97823.19;5025560;28;20282;-41
2021/06/25 05:44:05;;;;;;;5.15;3.17;;;17.00;93.70;;;17.21;72.42;97822.31;5024381;28;20053;-41
2021/06/25 05:46:32;;;;;;;6.43;3.17;;;17.00;93.60;;;17.26;72.38;97827.13;5026456;28;20234;-41
2021/06/25 05:49:01;;;;;;;6.95;3.03;;;17.00;93.80;;;17.32;72.40;97826.31;5027390;28;20041;-41
2021/06/25 05:51:29;;;;;;;3.97;2.83;;;17.10;94.00;;;17.27;72.59;97828.78;5026461;28;20056;-41
2021/06/25 05:53:57;;;;;;;3.75;2.80;;;17.00;93.60;;;17.22;72.62;97831.25;5024827;28;20060;-41
2021/06/25 05:56:24;;;;;;;4.40;2.80;;;17.00;94.10;;;17.25;72.30;97828.13;5025323;28;20055;-41
2021/06/25 05:58:52;;;;;;;3.22;2.60;;;17.10;94.00;;;17.20;72.49;97831.44;5027343;28;20262;-41
2021/06/25 06:01:20;;;;;;;3.45;2.72;;;17.00;93.80;;;17.22;72.41;97831.25;5024903;28;20052;-41
2021/06/25 06:03:48;;;;;;;3.72;3.33;;;17.00;93.80;;;17.20;72.41;97836.00;5023813;28;20057;-40
2021/06/25 06:06:16;;;;;;;4.90;2.58;;;17.00;93.90;;;17.18;72.59;97838.88;5026267;28;20063;-41
2021/06/25 06:08:44;;;;;;;3.70;3.20;;;17.00;93.60;;;17.21;72.56;97837.63;5024822;28;20057;-43
2021/06/25 06:11:12;;;;;;;2.92;2.55;;;17.10;94.00;;;17.04;72.90;97837.13;5025757;28;20049;-41
2021/06/25 06:13:40;;;;;;;4.47;3.40;;;16.90;93.70;;;17.03;72.60;97840.84;5024676;28;20233;-41
2021/06/25 06:16:08;;;;;;;5.28;3.65;;;16.80;94.40;;;17.01;72.93;97838.34;5025417;28;20042;-41
2021/06/25 06:18:44;;;;;;;4.95;3.38;;;16.80;94.80;;;17.02;73.09;97841.88;5025712;28;20041;-40
2021/06/25 06:21:14;;;;;;;4.40;3.33;;;16.80;94.80;;;16.96;73.42;97845.34;5025263;28;20473;-40
2021/06/25 06:32:30;;;;;;;3.88;3.42;;;16.90;94.90;;;17.01;73.65;97848.28;5023061;28;20052;-39
2021/06/25 06:34:52;;;;;;;5.97;4.35;;;16.80;95.20;;;16.97;73.47;97850.53;5025762;28;20273;-39
2021/06/25 06:37:21;;;;;;;4.70;3.58;;;16.80;95.40;;;17.04;73.51;97851.44;5025709;28;20059;-41
2021/06/25 06:39:49;;;;;;;5.18;4.57;;;16.80;95.60;;;17.06;73.76;97854.75;5025049;28;20338;-40
2021/06/25 06:42:17;;;;;;;5.82;4.68;;;16.90;96.20;;;17.10;73.67;97849.81;5025235;28;20053;-40
2021/06/25 06:44:45;;;;;;;6.85;5.82;;;16.90;96.20;;;17.14;73.89;97859.13;5025633;28;20069;-40
2021/06/25 06:47:13;;;;;;;8.60;6.35;;;17.00;96.00;;;17.11;74.14;97856.84;5025055;28;20049;-40
2021/06/25 06:49:41;;;;;;;7.78;5.63;;;16.90;96.20;;;17.20;73.89;97852.13;5025094;28;20068;-41
2021/06/25 06:52:09;;;;;;;8.48;6.10;;;17.00;96.30;;;17.26;73.92;97854.84;5024524;28;20067;-40
2021/06/25 06:54:37;;;;;;;8.18;6.20;;;17.20;96.00;;;17.12;74.28;97856.63;5026323;28;20259;-40
2021/06/25 06:57:05;;;;;;;7.57;5.75;;;17.00;95.80;;;17.21;73.96;97857.28;5025718;28;20338;-40
2021/06/25 06:59:33;;;;;;;7.57;6.13;;;17.10;96.10;;;17.22;74.06;97868.91;5025821;28;20053;-40
2021/06/25 07:02:01;;;;;;;8.02;6.68;;;17.10;96.00;;;17.23;73.97;97859.78;5023685;28;20047;-40
2021/06/25 07:04:38;;;;;;;8.50;6.63;;;17.10;95.90;;;17.11;74.62;97863.03;5025270;28;20061;-40
2021/06/25 07:07:06;;;;;;;12.43;7.30;;;17.00;96.00;;;17.26;74.00;97865.63;5024739;28;20079;-40
2021/06/25 07:09:34;;;;;;;8.55;6.82;;;17.10;96.40;;;17.32;73.97;97866.69;5026020;28;20373;-40
2021/06/25 07:12:03;;;;;;;9.27;6.72;;;17.20;96.00;;;17.20;74.30;97876.34;5031324;28;20258;-40
2021/06/25 07:14:30;;;;;;;7.75;6.30;;;17.10;95.70;;;17.19;74.39;97867.44;5044953;28;20057;-40
2021/06/25 07:16:59;;;;;;;7.82;6.93;;;17.00;96.40;;;17.25;74.31;97866.66;5044414;28;20060;-40
2021/06/25 07:19:27;;;;;;;7.88;6.80;;;17.10;96.50;;;17.22;74.30;97866.22;5043437;28;20053;-40
2021/06/25 07:21:55;;;;;;;6.97;5.47;;;17.10;96.20;;;17.15;74.64;97870.72;5044572;28;20358;-40
2021/06/25 07:24:23;;;;;;;7.72;5.75;;;17.10;96.20;;;17.17;74.71;97872.19;5044433;28;20350;-40
2021/06/25 07:26:51;;;;;;;6.20;5.07;;;17.00;96.70;;;17.13;74.91;97873.59;5045976;28;20061;-41
2021/06/25 07:29:19;;;;;;;7.72;5.45;;;17.00;96.40;;;17.19;74.76;97877.38;5045713;28;20044;-41
2021/06/25 07:31:46;;;;;;;9.07;5.85;;;17.00;96.80;;;17.17;75.10;97874.03;5043589;28;20063;-41
2021/06/25 07:34:14;;;;;;;5.32;3.80;;;17.10;97.20;;;17.18;74.87;97875.72;5043886;28;20044;-41
2021/06/25 07:36:43;;;;;;;5.47;4.13;;;17.10;95.90;;;17.18;75.13;97868.47;5044466;28;20056;-41
2021/06/25 07:39:11;;;;;;;4.88;3.50;;;17.10;96.60;;;17.13;75.12;97870.91;5044363;28;20143;-41
2021/06/25 07:41:39;;;;;;;4.38;3.10;;;17.10;96.90;;;17.11;75.09;97876.47;5041608;28;20079;-40
2021/06/25 07:44:08;;;;;;;3.92;2.80;;;17.00;96.70;;;17.08;75.02;97871.50;5044305;28;20051;-40
2021/06/25 07:46:36;;;;;;;4.25;3.13;;;17.00;96.90;;;17.15;74.86;97868.03;5044029;28;20061;-40
2021/06/25 07:49:04;;;;;;;4.32;2.97;;;17.00;96.90;;;17.20;75.18;97874.47;5043921;28;20048;-40
2021/06/25 07:51:33;;;;;;;4.10;3.17;;;17.10;97.00;;;17.21;75.14;97875.31;5044134;28;20057;-40
2021/06/25 07:54:01;;;;;;;3.85;3.10;;;17.10;96.60;;;17.26;74.66;97873.69;5044201;28;20053;-40
2021/06/25 07:56:29;;;;;;;3.42;2.90;;;17.20;96.90;;;17.13;74.96;97881.66;5044914;28;20053;-39
2021/06/25 07:58:57;;;;;;;4.78;2.90;;;17.00;96.60;;;17.22;74.79;97876.97;5041890;28;20053;-39
2021/06/25 08:01:25;;;;;;;3.10;2.20;;;17.10;97.40;;;17.29;74.77;97873.31;5019106;28;20258;-40
2021/06/25 08:03:54;;;;;;;2.70;2.17;;;17.20;96.80;;;17.08;75.16;97878.75;5019544;28;20746;-40
2021/06/25 08:06:22;;;;;;;2.58;2.08;;;17.00;97.20;;;17.10;75.02;97874.00;5027506;28;20120;-40
2021/06/25 08:08:50;;;;;;;2.80;1.77;;;17.00;96.70;;;17.05;74.79;97873.75;5026795;28;20045;-40
2021/06/25 08:11:17;;;;;;;3.05;1.98;;;16.90;96.80;;;17.04;75.02;97878.31;5040214;28;20213;-40
2021/06/25 08:13:45;;;;;;;2.67;1.95;;;16.90;96.80;;;16.97;75.11;97876.59;5034512;28;20061;-40
2021/06/25 08:16:14;;;;;;;1.90;1.70;;;16.90;97.00;;;17.03;75.26;97873.94;5027369;28;20350;-40
2021/06/25 08:18:42;;;;;;;2.40;1.90;;;16.90;97.50;;;17.00;75.22;97874.38;5027705;28;20251;-40
2021/06/25 08:21:14;;;;;;;3.00;2.00;;;16.80;97.60;;;16.98;75.37;97879.06;5036675;28;20047;-40
2021/06/25 08:23:42;;;;;;;2.30;1.77;;;16.80;97.40;;;17.03;75.17;97879.34;5041557;28;20052;-40
2021/06/25 08:26:11;;;;;;;2.70;2.03;;;16.90;97.80;;;16.97;75.56;97880.13;5058828;28;20049;-40
2021/06/25 08:28:39;;;;;;;2.42;1.90;;;16.90;97.90;;;16.87;75.34;97885.03;5064054;28;20060;-41
2021/06/25 08:31:07;;;;;;;3.20;2.28;;;16.70;98.20;;;16.89;75.47;97880.28;5044449;28;20053;-41
2021/06/25 08:33:35;;;;;;;3.47;2.33;;;16.70;98.40;;;16.82;75.47;97880.22;5027534;28;20057;-41
2021/06/25 08:36:05;;;;;;;4.40;2.45;;;16.70;98.10;;;16.61;75.80;97880.22;5039538;28;20057;-41
2021/06/25 08:38:33;;;;;;;3.95;2.50;;;16.50;98.60;;;16.62;75.54;97890.78;5026836;28;20053;-41
2021/06/25 08:41:02;;;;;;;3.60;2.72;;;16.40;99.00;;;16.67;75.79;97887.50;5027232;28;20063;-41
2021/06/25 08:43:30;;;;;;;5.18;3.30;;;16.50;99.60;;;16.69;75.62;97883.63;5027960;28;20049;-41
2021/06/25 08:46:01;;;;;;;5.40;3.58;;;16.50;99.30;;;16.61;75.97;97881.03;5043118;28;20072;-41
2021/06/25 08:48:30;;;;;;;7.13;4.75;;;16.40;99.60;;;16.56;75.81;97893.44;5027067;28;20049;-41
2021/06/25 08:50:58;;;;;;;5.78;3.97;;;16.30;99.50;;;16.27;76.74;97892.53;5028412;28;20358;-41
2021/06/25 08:53:26;;;;;;;6.88;5.32;;;16.20;99.20;;;16.47;76.15;97890.84;5021771;28;20243;-41
2021/06/25 08:55:54;;;;;;;8.55;5.28;;;16.30;99.90;;;16.49;76.26;97888.78;5026636;28;20044;-40
2021/06/25 08:58:23;;;;;;;7.85;5.82;;;16.30;99.90;;;16.43;76.64;97896.81;5020592;28;20059;-41
2021/06/25 09:00:52;;;;;;;7.80;5.70;;;16.30;99.90;;;16.41;76.77;97888.13;5027412;28;20236;-40
2021/06/25 09:03:28;;;;;;;6.53;5.25;;;16.30;99.90;;;16.37;76.89;97893.03;5023864;28;20049;-40
2021/06/25 09:06:15;;;;;;;7.97;5.55;;;16.30;99.90;;;16.50;76.24;97903.91;5027097;28;20061;-41
2021/06/25 09:08:43;;;;;;;7.75;5.93;;;16.40;99.90;;;16.50;76.73;97897.72;5032195;28;20061;-41
2021/06/25 09:11:33;;;;;;;8.82;6.30;;;16.40;99.60;;;16.56;76.42;97898.81;5040037;28;20223;-41
2021/06/25 09:14:03;;;;;;;7.25;6.13;;;16.50;99.50;;;16.48;76.90;97897.91;5025437;28;20065;-41
2021/06/25 09:16:35;;;;;;;7.95;6.18;;;16.50;99.30;;;16.65;76.42;97895.78;5031532;28;20055;-40
2021/06/25 09:19:17;;;;;;;9.60;7.20;;;16.60;99.70;;;16.74;76.44;97899.16;5046132;28;20056;-40
2021/06/25 09:22:04;;;;;;;8.82;6.60;;;16.70;99.50;;;16.85;76.32;97893.28;5046471;28;20059;-41
2021/06/25 09:24:33;;;;;;;8.27;6.22;;;16.90;99.20;;;16.90;76.09;97903.44;5048078;28;20063;-40
2021/06/25 09:27:05;;;;;;;10.35;7.95;;;17.00;97.70;;;16.85;76.36;97887.91;5044743;28;20049;-41
2021/06/25 09:29:37;;;;;;;10.43;7.20;;;16.80;98.60;;;16.86;76.70;97894.94;5044041;28;20259;-41
2021/06/25 09:32:11;;;;;;;10.38;6.93;;;16.90;98.70;;;16.75;76.27;97895.44;5046038;28;20041;-40
2021/06/25 09:34:52;;;;;;;8.30;5.97;;;16.80;98.10;;;16.85;76.16;97895.16;5046630;28;20641;-40
2021/06/25 09:37:21;;;;;;;9.23;6.90;;;16.90;97.40;;;16.62;76.20;97887.28;5027075;28;20060;-41
2021/06/25 09:40:08;;;;;;;10.45;7.78;;;16.70;97.40;;;16.74;76.74;97891.09;5020093;28;20048;-40
2021/06/25 09:42:36;;;;;;;8.93;7.07;;;16.80;99.20;;;16.79;76.16;97894.03;5021528;28;20552;-41
2021/06/25 09:45:13;;;;;;;10.77;6.95;;;16.90;97.10;;;16.97;76.26;97887.38;5031506;28;20238;-40
2021/06/25 09:47:52;;;;;;;10.00;6.43;;;17.10;98.30;;;16.95;75.87;97898.31;5025750;28;20059;-40
2021/06/25 09:50:27;;;;;;;8.73;6.72;;;17.10;96.70;;;16.98;76.09;97905.16;5025537;28;20057;-41
2021/06/25 09:53:00;;;;;;;9.10;6.80;;;17.10;97.70;;;17.11;75.96;97897.19;5025735;28;20060;-41
2021/06/25 09:55:54;;;;;;;9.40;6.68;;;17.20;97.50;;;17.10;75.32;97899.03;5026585;28;20057;-41
2021/06/25 10:01:23;;;;;;;8.70;6.97;;;17.10;97.50;;;17.09;75.47;97899.25;5023096;28;20057;-40
2021/06/25 10:04:02;;;;;;;8.85;6.68;;;17.20;96.40;;;17.13;75.19;97898.63;5014577;28;20041;-40
2021/06/25 10:06:34;;;;;;;9.80;7.13;;;17.20;95.70;;;17.17;75.07;97903.63;5008228;28;20061;-40
2021/06/25 10:09:04;;;;;;;11.65;7.72;;;17.10;95.70;;;17.10;74.45;97906.28;5009876;28;20054;-40
2021/06/25 10:11:34;;;;;;;11.23;8.18;;;17.10;95.60;;;16.90;74.82;97904.28;5004456;28;20306;-40
2021/06/25 10:14:04;;;;;;;10.07;7.20;;;16.90;95.30;;;16.90;74.83;97908.81;5005924;28;20251;-41
2021/06/25 10:16:33;;;;;;;12.63;7.93;;;16.80;96.40;;;17.01;74.98;97907.47;5016038;28;20056;-40
2021/06/25 10:19:02;;;;;;;13.52;9.25;;;16.90;96.00;;;17.07;74.66;97915.56;5006887;28;20113;-40
2021/06/25 10:21:32;;;;;;;14.60;10.25;;;17.10;96.50;;;16.97;74.82;97920.47;5005807;28;20049;-40
2021/06/25 10:24:04;;;;;;;16.92;10.85;;;17.00;96.10;;;16.96;74.69;97913.41;5004326;28;20052;-40
2021/06/25 10:26:33;;;;;;;15.77;11.00;;;17.00;96.00;;;17.03;74.62;97914.28;5020497;28;20347;-40
2021/06/25 10:29:03;;;;;;;17.10;11.63;;;17.00;96.70;;;17.15;74.44;97916.44;5003441;28;20355;-40
2021/06/25 10:31:31;;;;;;;18.05;12.40;;;17.10;95.20;;;17.08;74.42;97922.63;5006081;28;20239;-40
2021/06/25 10:33:59;;;;;;;17.23;12.63;;;17.10;95.80;;;16.97;74.55;97922.31;5023594;28;20046;-40
2021/06/25 10:36:31;;;;;;;20.00;13.60;;;17.00;95.20;;;17.06;74.55;97921.13;5024284;28;20052;-40
2021/06/25 10:39:13;;;;;;;19.42;14.40;;;17.10;96.00;;;17.13;74.75;97927.41;5025827;28;20060;-40